LECOLEVX

Guest
Details From LECO - A Coruna
To LEVX - Vigo
Flight Number -
Tags generated
Created
Modified
Stats Distance 65 nm / 121 km
Max Altitude 1,100 ft / 335 m
Waypoints 3
Social Downloads 5
Likes 0
Share VATSIM

Download

Looking for another format? Having issues loading an existing format? Contact us
Advertisement - Login to hide

Notes

Basic altitude profile: - Ascent Rate: 2500ft/min - Ascent Speed: 250kts - Cruise Altitude: 35000ft - Cruise Speed: 420kts - Descent Rate: 1500ft/min - Descent Speed: 250kts Options: - Use NATs: yes - Use PACOTS: yes - Use low airways: yes - Use high airways: yes

Route

LECO VGO LEVX

ID Type Via Altitude Latitude Longitude Leg Dist Tot Dist Heading (true) Name
O LECO APT - 0 ft / 0 m 43.30226˚ -8.37709˚ - 0 nm - A Coruna
VGO VOR - 1,100 ft / 335 m 42.32131˚ -8.60164˚ 59 nm 59 nm 190° / 189° VIGO VOR-DME
O LEVX APT - 0 ft / 0 m 42.23189˚ -8.62677˚ 5 nm 65 nm 192° / 192° Vigo

Altitude Profile

Advertisement - Login to hide

LECO

Details ICAO LECO (LCG)
Name A Coruna
Region Spain
Timezone Europe/Madrid (UTC+1.0)
Stats Elevation 323 ft / 98 m (AMSL)
Location 43.302264° -8.377086°
Runways 1
Magnetic Variation 2.390° W

METAR

LECO 181430Z VRB01KT 9999 OVC020 12/09 Q1034 NOSIG

Decode

TAF

TAF LECO 181400Z 1815/1915 35009KT 9999 SCT010 BKN020 TX13/1822Z TN10/1905Z TEMPO 1815/1912 BKN014 PROB40 TEMPO 1817/1906 3000 -RADZ BKN005 BKN010 PROB40 TEMPO 1900/1909 0350 FG VV001

Decode

Departure Runways

ID Width Length Bearing (true) Bearing (mag) Surface Threshold Offset Overrun Length
04 148 ft / 45 m 6,371 ft / 1,942 m 30.94° 33.33° Asphalt 0 ft / 0 m 194 ft / 59 m
22 148 ft / 45 m 6,371 ft / 1,942 m 210.94° 213.33° Asphalt 0 ft / 0 m 203 ft / 62 m

LEVX

Details ICAO LEVX (VGO)
Name Vigo
Region Spain
Timezone Europe/Madrid (UTC+1.0)
Stats Elevation 855 ft / 261 m (AMSL)
Location 42.231894° -8.626774°
Runways 1
Magnetic Variation 2.389° W

METAR

LEVX 181430Z VRB01KT 9999 VCFG NSC 12/07 Q1033 NOSIG

Decode

TAF

TAF LEVX 181100Z 1812/1912 36009KT 9999 BKN020 TX12/1816Z TN07/1812Z TEMPO 1812/1912 BKN014 TEMPO 1818/1909 2500 BR BKN008 PROB40 TEMPO 1900/1909 0250 FG VV001

Decode

Destination Runways

ID Width Length Bearing (true) Bearing (mag) Surface Threshold Offset Overrun Length
02 148 ft / 45 m 7,905 ft / 2,409 m 11.38° 13.77° Asphalt 0 ft / 0 m 164 ft / 50 m
20 148 ft / 45 m 7,905 ft / 2,409 m 191.38° 193.77° Asphalt 0 ft / 0 m 164 ft / 50 m

Approach Navaids

Runway Type Ident Frequency Range Bearing (true) Bearing (mag) Slope Elevation
20 Localiser VIG 110.90 MHz 18 nm / 33 km 191.38° 193.77° - 855 ft / 261 m (AMSL)
20 Glidescope VIG 110.90 MHz 10 nm / 19 km 191.38° 193.77° 3.00° 855 ft / 261 m (AMSL)
20 DME VIG 110.90 MHz 18 nm / 33 km - - - 833 ft / 254 m (AMSL)

Popular Alternatives